Flight Track Log - Related Links

Times and Time Zones

All times are in EDT time to prevent confusion due to time zone crossing. See the EJA871 flight status page for this flight to view local times or setup timezone preferences in your user account.

Time Position Orientation Groundspeed Altitude Reporting Facility
EDT Latitude Longitude Course Direction KTS MPH feet Rate Location/Type
Thu 01:38:56 PM 36.1172 -115.1492 53° Northeast 199 229 3,500  Level Los Angeles Center
Thu 01:40:10 PM 36.1556 -115.0861 53° Northeast 243 280 7,600 3,362 Climbing Los Angeles Center
Thu 01:41:17 PM 36.1439 -114.9983 99° East 238 274 11,400 3,023 Climbing Los Angeles Center
Thu 01:42:19 PM 36.1494 -114.9083 86° East 259 298 14,100 2,419 Climbing Los Angeles Center
Thu 01:43:21 PM 36.1617 -114.8058 82° East 295 339 16,400 2,129 Climbing Los Angeles Center
Thu 01:44:23 PM 36.1878 -114.6972 73° East 320 368 18,500 2,274 Climbing Los Angeles Center
Thu 01:45:25 PM 36.1889 -114.5792 89° East 344 396 21,100 2,565 Climbing Los Angeles Center
Thu 01:46:27 PM 36.1903 -114.4361 89° East 347 399 23,800 2,118 Climbing Los Angeles Center
Thu 01:47:41 PM 36.1925 -114.3139 89° East 355 409 25,900 1,883 Climbing Los Angeles Center
Thu 01:48:44 PM 36.2453 -114.1792 64° Northeast 370 426 28,100 1,488 Climbing Los Angeles Center
Thu 01:49:46 PM 36.3139 -114.0819 49° Northeast 377 434 29,000 871 Climbing Los Angeles Center
Thu 01:50:48 PM 36.3864 -113.9369 58° Northeast 412 474 29,900 1,161 Climbing Los Angeles Center
Thu 01:51:50 PM 36.4475 -113.8178 57° Northeast 411 473 31,400 1,452 Climbing Los Angeles Center
Thu 01:52:52 PM 36.5053 -113.7033 58° Northeast 396 456 32,900 1,500 Climbing Los Angeles Center
Thu 01:53:54 PM 36.5678 -113.5797 58° Northeast 389 448 34,500 1,344 Climbing Los Angeles Center
Thu 01:54:57 PM 36.6214 -113.4675 59° Northeast 381 438 35,700 1,008 Climbing Los Angeles Center
Thu 01:55:59 PM 36.6783 -113.3561 57° Northeast 383 441 36,600 829 Climbing Los Angeles Center
Thu 01:57:00 PM 36.7231 -113.2658 58° Northeast 384 442 37,400 976 Climbing Los Angeles Center
Thu 01:58:02 PM 36.7783 -113.1539 58° Northeast 382 440 38,600 768 Climbing Los Angeles Center
Thu 01:59:05 PM 36.8544 -113.0014 58° Northeast 374 430 39,000 175 Climbing Los Angeles Center
Thu 02:00:19 PM 36.9117 -112.8850 58° Northeast 390 449 39,000  Level Los Angeles Center
Thu 02:01:21 PM 36.9833 -112.7400 58° Northeast 409 471 39,000  Level Los Angeles Center
Thu 02:02:24 PM 37.0356 -112.6081 64° Northeast 423 487 39,000  Level Los Angeles Center
Thu 02:03:26 PM 37.0850 -112.4717 66° East 431 496 39,000  Level Los Angeles Center
Thu 02:04:28 PM 37.1458 -112.3067 65° Northeast 438 504 39,000  Level Los Angeles Center
Thu 02:05:30 PM 37.1950 -112.1678 66° East 438 504 39,000  Level Los Angeles Center
Thu 02:06:32 PM 37.2447 -112.0281 66° East 441 507 39,000  Level Los Angeles Center
Thu 02:07:34 PM 37.2953 -111.8897 65° Northeast 439 505 39,000  Level Los Angeles Center
Thu 02:08:13 PM 37.3258 -111.8064 65° Northeast 439 505 39,000  Level Denver Center
Thu 02:09:15 PM 37.3828 -111.6400 67° East 435 501 39,000  Level Denver Center
Thu 02:10:17 PM 37.4322 -111.5011 66° East 437 503 39,000  Level Denver Center
Thu 02:11:19 PM 37.4700 -111.3894 67° East 438 504 39,000  Level Denver Center
Thu 02:12:21 PM 37.5289 -111.2219 66° East 439 505 39,000  Level Denver Center
Thu 02:13:23 PM 37.5778 -111.0822 66° East 438 504 39,000  Level Denver Center
Thu 02:14:25 PM 37.6258 -110.9422 67° East 437 503 39,000  Level Denver Center
Thu 02:15:27 PM 37.6844 -110.7739 66° East 436 502 39,000  Level Denver Center
Thu 02:16:29 PM 37.7331 -110.6325 66° East 439 505 39,000  Level Denver Center
Thu 02:17:31 PM 37.7803 -110.4914 67° East 438 504 39,000  Level Denver Center
Thu 02:18:45 PM 37.8336 -110.3331 67° East 438 504 39,000  Level Denver Center
Thu 02:19:47 PM 37.8875 -110.1739 67° East 440 506 39,000  Level Denver Center
Thu 02:20:49 PM 37.9250 -110.0611 67° East 438 504 39,000  Level Denver Center
Thu 02:21:51 PM 37.9872 -109.8789 67° East 440 506 39,000  Level Denver Center
Thu 02:22:53 PM 38.0394 -109.7175 68° East 442 509 39,000  Level Denver Center
Thu 02:23:55 PM 38.0878 -109.5731 67° East 441 507 39,000  Level Denver Center
Thu 02:24:57 PM 38.1319 -109.4358 68° East 440 506 39,000  Level Denver Center
Thu 02:25:59 PM 38.1836 -109.2769 67° East 437 503 39,000  Level Denver Center
Thu 02:27:01 PM 38.2278 -109.1386 68° East 441 507 39,000  Level Denver Center
Thu 02:28:03 PM 38.2792 -108.9786 68° East 438 504 39,000  Level Denver Center
Thu 02:29:05 PM 38.3244 -108.8428 67° East 436 502 39,000  Level Denver Center
Thu 02:30:07 PM 38.3750 -108.6817 68° East 437 503 39,000  Level Denver Center
Thu 02:31:08 PM 38.4186 -108.5456 68° East 436 502 39,000  Level Denver Center
Thu 02:32:10 PM 38.4703 -108.3847 68° East 441 507 39,000  Level Denver Center
Thu 02:33:12 PM 38.5136 -108.2469 68° East 439 505 39,000  Level Denver Center
Thu 02:34:14 PM 38.5561 -108.1075 69° East 441 507 39,000  Level Denver Center
Thu 02:35:16 PM 38.6064 -107.9447 68° East 442 509 39,000  Level Denver Center
Thu 02:36:18 PM 38.6492 -107.8069 68° East 438 504 39,000  Level Denver Center
Thu 02:37:20 PM 38.7000 -107.6442 68° East 441 507 39,000  Level Denver Center
Thu 02:38:22 PM 38.7425 -107.5064 68° East 438 504 39,000  Level Denver Center
Thu 02:39:24 PM 38.7906 -107.3458 69° East 435 501 39,000  Level Denver Center
Thu 02:40:26 PM 38.8336 -107.2067 68° East 437 503 39,000  Level Denver Center
Thu 02:41:28 PM 38.8778 -107.0578 69° East 435 501 39,000  Level Denver Center
Thu 02:42:30 PM 38.9233 -106.9061 69° East 438 504 39,000  Level Denver Center
Thu 02:43:32 PM 38.9714 -106.7439 69° East 436 502 39,000  Level Denver Center
Thu 02:44:34 PM 39.0122 -106.6036 69° East 437 503 39,000  Level Denver Center
Thu 02:45:36 PM 39.0611 -106.4414 69° East 436 502 39,000  Level Denver Center
Thu 02:46:38 PM 39.1022 -106.3028 69° East 434 499 39,000  Level Denver Center
Thu 02:47:40 PM 39.1442 -106.1597 69° East 432 497 39,000  Level Denver Center
Thu 02:48:42 PM 39.1878 -106.0100 69° East 435 501 39,000  Level Denver Center
Thu 02:49:56 PM 39.2281 -105.8678 70° East 434 499 39,000  Level Denver Center
Thu 02:50:58 PM 39.2864 -105.6619 70° East 436 502 39,000  Level Denver Center
Thu 02:52:00 PM 39.3286 -105.5133 70° East 440 506 39,000  Level Denver Center
Thu 02:53:02 PM 39.3750 -105.3519 70° East 446 513 39,000  Level Denver Center
Thu 02:54:04 PM 39.4164 -105.2042 70° East 440 506 39,000  Level Denver Center
Thu 02:55:06 PM 39.4575 -105.0550 70° East 445 512 39,000  Level Denver Center
Thu 02:56:08 PM 39.5008 -104.8958 71° East 439 505 39,000  Level Denver Center
Thu 02:57:10 PM 39.5422 -104.7478 70° East 440 506 39,000  Level Denver Center
Thu 02:58:11 PM 39.5856 -104.5889 70° East 437 503 39,000  Level Denver Center
Thu 02:59:13 PM 39.6250 -104.4417 71° East 437 503 39,000  Level Denver Center
Thu 03:00:15 PM 39.6689 -104.2828 70° East 437 503 39,000  Level Denver Center
Thu 03:01:17 PM 39.7083 -104.1344 71° East 438 504 39,000  Level Denver Center
Thu 03:02:19 PM 39.7508 -103.9739 71° East 439 505 39,000  Level Denver Center
Thu 03:03:21 PM 39.7917 -103.8236 70° East 441 507 39,000  Level Denver Center
Thu 03:04:23 PM 39.8289 -103.6831 71° East 424 488 39,000  Level Denver Center
Thu 03:05:25 PM 39.8736 -103.5164 71° East 436 502 39,000  Level Denver Center
Thu 03:06:27 PM 39.9136 -103.3619 71° East 441 507 39,000  Level Denver Center
Thu 03:07:28 PM 39.9508 -103.2164 72° East 443 510 39,000  Level Denver Center
Thu 03:08:30 PM 39.9953 -103.0456 71° East 445 512 39,000  Level Denver Center
Thu 03:09:32 PM 40.0322 -102.8989 72° East 446 513 39,000  Level Denver Center
Thu 03:10:34 PM 40.0639 -102.7772 71° East 445 512 39,000  Level Denver Center
Thu 03:11:36 PM 40.1133 -102.5808 72° East 448 516 39,000  Level Denver Center
Thu 03:12:37 PM 40.1444 -102.4575 72° East 449 517 39,000  Level Denver Center
Thu 03:13:39 PM 40.1942 -102.2597 72° East 450 518 39,000  Level Denver Center
Thu 03:14:41 PM 40.2364 -102.0853 72° East 451 519 39,000  Level Denver Center
Thu 03:15:43 PM 40.2750 -101.9372 71° East 449 517 39,000  Level Denver Center
Thu 03:16:45 PM 40.3106 -101.7872 73° East 451 519 39,000  Level Denver Center
Thu 03:17:47 PM 40.3531 -101.6119 72° East 455 524 39,000  Level Denver Center
Thu 03:18:49 PM 40.3894 -101.4631 72° East 451 519 39,000  Level Denver Center
Thu 03:19:50 PM 40.4311 -101.2889 73° East 449 517 39,000  Level Denver Center
Thu 03:20:52 PM 40.4664 -101.1378 73° East 453 521 39,000  Level Denver Center
Thu 03:21:54 PM 40.5078 -100.9633 73° East 451 519 39,000  Level Denver Center
Thu 03:22:56 PM 40.5425 -100.8136 73° East 451 519 39,000  Level Denver Center
Thu 03:23:58 PM 40.5828 -100.6394 73° East 452 520 39,000  Level Denver Center
Thu 03:24:59 PM 40.6119 -100.5153 73° East 451 519 39,000  Level Denver Center
Thu 03:26:02 PM 40.6592 -100.3158 73° East 450 518 39,000  Level Denver Center
Thu 03:27:04 PM 40.6928 -100.1653 74° East 450 518 39,000  Level Denver Center
Thu 03:28:05 PM 40.7328 -99.9889 73° East 451 519 39,000  Level Denver Center
Thu 03:29:07 PM 40.7683 -99.8300 73° East 451 519 39,000  Level Denver Center
Thu 03:30:09 PM 40.8039 -99.6714 73° East 451 519 39,000  Level Denver Center
Thu 03:31:11 PM 40.8392 -99.5114 74° East 453 521 39,000  Level Denver Center
Thu 03:32:13 PM 40.8744 -99.3531 74° East 452 520 39,000  Level Denver Center
Thu 03:33:15 PM 40.9081 -99.1944 74° East 450 518 39,000  Level Denver Center
Thu 03:34:09 PM 40.9433 -99.0358 74° East 450 518 39,000  Level Minneapolis Center
Thu 03:35:11 PM 40.9761 -98.8764 75° East 450 518 39,000  Level Minneapolis Center
Thu 03:36:13 PM 41.0108 -98.7153 74° East 453 521 39,000  Level Minneapolis Center
Thu 03:38:29 PM 41.0831 -98.3747 74° East 454 522 39,000  Level Minneapolis Center
Thu 03:39:31 PM 41.1236 -98.1831 74° East 453 521 39,000  Level Minneapolis Center
Thu 03:40:33 PM 41.1567 -98.0208 75° East 456 525 39,000  Level Minneapolis Center
Thu 03:41:35 PM 41.1900 -97.8597 75° East 455 524 39,000  Level Minneapolis Center
Thu 03:42:37 PM 41.2294 -97.6644 75° East 456 525 39,000  Level Minneapolis Center
Thu 03:43:39 PM 41.2625 -97.5042 75° East 453 521 39,000  Level Minneapolis Center
Thu 03:44:41 PM 41.2908 -97.3614 75° East 453 521 39,000  Level Minneapolis Center
Thu 03:45:43 PM 41.3283 -97.1686 75° East 449 517 39,000  Level Minneapolis Center
Thu 03:46:45 PM 41.3544 -97.0400 75° East 449 517 39,000  Level Minneapolis Center
Thu 03:47:59 PM 41.3911 -96.8497 76° East 444 511 39,000  Level Minneapolis Center
Thu 03:49:01 PM 41.4303 -96.6439 76° East 442 509 39,000  Level Minneapolis Center
Thu 03:50:03 PM 41.4581 -96.5025 75° East 438 504 39,000  Level Minneapolis Center
Thu 03:51:05 PM 41.4911 -96.3272 76° East 437 503 39,000  Level Minneapolis Center
Thu 03:52:07 PM 41.5200 -96.1675 76° East 441 507 39,000  Level Minneapolis Center
Thu 03:53:09 PM 41.5506 -96.0108 75° East 437 503 39,000  Level Minneapolis Center
Thu 03:54:11 PM 41.5789 -95.8514 77° East 440 506 39,000  Level Minneapolis Center
Thu 03:55:13 PM 41.6092 -95.6942 76° East 437 503 39,000  Level Minneapolis Center
Thu 03:56:15 PM 41.6425 -95.5097 76° East 441 507 39,000  Level Minneapolis Center
Thu 03:57:29 PM 41.6706 -95.3500 77° East 441 507 39,000  Level Minneapolis Center
Thu 03:58:32 PM 41.7061 -95.1572 76° East 443 510 39,000  Level Minneapolis Center
Thu 03:59:34 PM 41.7339 -94.9969 77° East 442 509 39,000  Level Minneapolis Center
Thu 04:00:36 PM 41.7628 -94.8364 76° East 442 509 39,000  Level Minneapolis Center
Thu 04:01:37 PM 41.7850 -94.7075 77° East 444 511 39,000  Level Minneapolis Center
Thu 04:02:40 PM 41.8233 -94.4814 77° East 445 512 39,000  Level Minneapolis Center
Thu 04:03:42 PM 41.8514 -94.3200 77° East 444 511 39,000  Level Minneapolis Center
Thu 04:04:44 PM 41.8800 -94.1567 77° East 448 516 39,000  Level Minneapolis Center
Thu 04:05:46 PM 41.9064 -93.9947 78° East 447 514 39,000  Level Minneapolis Center
Thu 04:06:48 PM 41.9319 -93.8342 78° East 448 516 39,000  Level Minneapolis Center
Thu 04:07:50 PM 41.9606 -93.6567 78° East 450 518 39,000  Level Minneapolis Center
Thu 04:08:52 PM 41.9878 -93.4936 77° East 451 519 39,000  Level Minneapolis Center
Thu 04:09:54 PM 42.0194 -93.2981 78° East 450 518 39,000  Level Minneapolis Center
Thu 04:10:56 PM 42.0464 -93.1325 78° East 456 525 39,000  Level Minneapolis Center
Thu 04:11:58 PM 42.0722 -92.9669 78° East 457 526 39,000  Level Minneapolis Center
Thu 04:13:00 PM 42.0975 -92.8028 78° East 454 522 39,000  Level Minneapolis Center
Thu 04:14:02 PM 42.1183 -92.6717 78° East 454 522 39,000  Level Minneapolis Center
Thu 04:15:05 PM 42.1536 -92.4408 78° East 454 522 39,000 -432 Level Minneapolis Center
Thu 04:16:07 PM 42.1786 -92.2753 78° East 456 525 38,100 -1,161 Descending Minneapolis Center
Thu 04:17:09 PM 42.2031 -92.1089 79° East 456 525 36,600 -1,488 Descending Minneapolis Center
Thu 04:18:08 PM 42.2286 -91.9389 78° East 464 534 35,100 -1,488 Descending Chicago Center
Thu 04:19:10 PM 42.2525 -91.7689 79° East 466 536 33,600 -1,452 Descending Chicago Center
Thu 04:20:12 PM 42.2781 -91.5972 79° East 472 543 32,100 -1,548 Descending Chicago Center
Thu 04:21:14 PM 42.3081 -91.3878 79° East 479 551 30,400 -1,016 Descending Chicago Center
Thu 04:22:16 PM 42.3317 -91.2172 79° East 475 547 30,000 -677 Descending Chicago Center
Thu 04:23:18 PM 42.3558 -91.0394 80° East 487 560 29,000 -484 Descending Chicago Center
Thu 04:24:20 PM 42.3808 -90.8594 79° East 494 568 29,000  Level Chicago Center
Thu 04:25:22 PM 42.4089 -90.6406 80° East 500 575 29,000 -823 Level Chicago Center
Thu 04:26:24 PM 42.4258 -90.4597 83° East 496 571 27,300 -960 Descending Chicago Center
Thu 04:27:27 PM 42.4436 -90.2836 82° East 483 556 27,000 -1,016 Descending Chicago Center
Thu 04:28:28 PM 42.4628 -90.1056 82° East 483 556 25,200 -1,024 Descending Chicago Center
Thu 04:29:30 PM 42.4828 -89.8950 83° East 477 549 24,900 -912 Descending Chicago Center
Thu 04:30:33 PM 42.5006 -89.7161 82° East 467 537 23,300 -1,776 Descending Chicago Center
Thu 04:31:35 PM 42.5167 -89.5433 83° East 464 534 21,200 -1,597 Descending Chicago Center
Thu 04:32:37 PM 42.5331 -89.3764 82° East 451 519 20,000 -581 Descending Chicago Center
Thu 04:33:39 PM 42.5475 -89.2150 83° East 435 501 20,000  Level Chicago Center
Thu 04:34:41 PM 42.5675 -89.0506 81° East 441 507 20,000 -1,355 Level Chicago Center
Thu 04:35:43 PM 42.6011 -88.8642 76° East 439 505 17,200 -3,000 Descending Chicago Center
Thu 04:36:45 PM 42.6297 -88.7117 76° East 421 484 13,800 -2,468 Descending Chicago Center
Thu 04:37:47 PM 42.6553 -88.5761 76° East 377 434 12,100 -1,403 Descending Chicago Center
Thu 04:38:49 PM 42.6781 -88.4650 74° East 316 364 10,900 -1,452 Descending Chicago Center
Thu 04:39:51 PM 42.6942 -88.3603 78° East 291 335 9,100 -1,887 Descending Chicago Center
Thu 04:40:53 PM 42.7328 -88.2486 65° Northeast 301 346 7,000 -1,790 Descending Chicago Center
Thu 04:41:55 PM 42.8097 -88.2319 North 291 335 5,400 -1,694 Descending Chicago Center
Thu 04:42:57 PM 42.8697 -88.1772 34° Northeast 261 300 3,500 -1,296 Descending Chicago Center
Thu 04:44:00 PM 42.8942 -88.0978 67° East 237 273 2,700 -449 Descending Chicago Center
Thu 04:44:44 PM 42.9000 -88.0500 81° East 164 189 2,700 -577 Level KMKE
Thu 04:45:44 PM 42.9167 -87.9833 71° East 154 177 1,700 -783 Descending KMKE
Thu 04:47:02 PM 42.9333 -87.9333 66° East 122 140 900 -615 Descending KMKE
Thu 04:49:00 PM 42.9333 -87.8833 56° Northeast  Level FlightAware Approximate

Login

Don't have an account? Register now (free) for customized features, flight alerts, and more!